sensor_id;sensor_type;location;lat;lon;timestamp;P1;durP1;ratioP1;P2;durP2;ratioP2
43670;SDS011;29267;50.906;7.248;2023-04-24T00:00:45;0.70;;;0.40;;
43670;SDS011;29267;50.906;7.248;2023-04-24T00:03:11;0.85;;;0.65;;
43670;SDS011;29267;50.906;7.248;2023-04-24T00:05:38;0.68;;;0.52;;
43670;SDS011;29267;50.906;7.248;2023-04-24T00:08:05;3.08;;;0.98;;
43670;SDS011;29267;50.906;7.248;2023-04-24T00:10:31;0.60;;;0.50;;
43670;SDS011;29267;50.906;7.248;2023-04-24T00:12:57;1.67;;;0.60;;
43670;SDS011;29267;50.906;7.248;2023-04-24T00:15:22;0.85;;;0.73;;
43670;SDS011;29267;50.906;7.248;2023-04-24T00:17:48;0.75;;;0.65;;
43670;SDS011;29267;50.906;7.248;2023-04-24T00:20:14;1.15;;;0.60;;
43670;SDS011;29267;50.906;7.248;2023-04-24T00:22:39;0.60;;;0.60;;
43670;SDS011;29267;50.906;7.248;2023-04-24T00:25:05;1.58;;;0.82;;
43670;SDS011;29267;50.906;7.248;2023-04-24T00:27:31;1.20;;;0.65;;
43670;SDS011;29267;50.906;7.248;2023-04-24T00:29:57;2.00;;;0.57;;
43670;SDS011;29267;50.906;7.248;2023-04-24T00:32:22;1.05;;;0.70;;
43670;SDS011;29267;50.906;7.248;2023-04-24T00:34:48;1.75;;;0.50;;
43670;SDS011;29267;50.906;7.248;2023-04-24T00:37:13;1.02;;;0.50;;
43670;SDS011;29267;50.906;7.248;2023-04-24T00:39:39;0.88;;;0.40;;
43670;SDS011;29267;50.906;7.248;2023-04-24T00:42:05;0.52;;;0.40;;
43670;SDS011;29267;50.906;7.248;2023-04-24T00:44:32;0.50;;;0.50;;
43670;SDS011;29267;50.906;7.248;2023-04-24T00:46:59;2.72;;;0.57;;
43670;SDS011;29267;50.906;7.248;2023-04-24T00:49:25;1.50;;;0.50;;
43670;SDS011;29267;50.906;7.248;2023-04-24T00:51:51;1.13;;;0.70;;
43670;SDS011;29267;50.906;7.248;2023-04-24T00:54:17;2.75;;;0.70;;
43670;SDS011;29267;50.906;7.248;2023-04-24T00:56:43;1.55;;;1.05;;
43670;SDS011;29267;50.906;7.248;2023-04-24T00:59:09;0.40;;;0.40;;
43670;SDS011;29267;50.906;7.248;2023-04-24T01:01:36;0.93;;;0.50;;
43670;SDS011;29267;50.906;7.248;2023-04-24T01:04:02;0.73;;;0.45;;
43670;SDS011;29267;50.906;7.248;2023-04-24T01:06:28;0.95;;;0.70;;
43670;SDS011;29267;50.906;7.248;2023-04-24T01:08:56;0.95;;;0.55;;
43670;SDS011;29267;50.906;7.248;2023-04-24T01:11:24;1.55;;;0.52;;
43670;SDS011;29267;50.906;7.248;2023-04-24T01:13:50;0.35;;;0.35;;
43670;SDS011;29267;50.906;7.248;2023-04-24T01:16:16;0.50;;;0.50;;
43670;SDS011;29267;50.906;7.248;2023-04-24T01:18:42;0.70;;;0.60;;
43670;SDS011;29267;50.906;7.248;2023-04-24T01:21:09;0.65;;;0.45;;
43670;SDS011;29267;50.906;7.248;2023-04-24T01:23:38;0.68;;;0.35;;
43670;SDS011;29267;50.906;7.248;2023-04-24T01:26:03;0.55;;;0.50;;
43670;SDS011;29267;50.906;7.248;2023-04-24T01:28:29;1.75;;;0.50;;
43670;SDS011;29267;50.906;7.248;2023-04-24T01:30:55;0.30;;;0.30;;
43670;SDS011;29267;50.906;7.248;2023-04-24T01:33:21;0.95;;;0.50;;
43670;SDS011;29267;50.906;7.248;2023-04-24T01:35:48;0.40;;;0.40;;
43670;SDS011;29267;50.906;7.248;2023-04-24T01:38:14;0.40;;;0.40;;
43670;SDS011;29267;50.906;7.248;2023-04-24T01:40:39;1.48;;;0.60;;
43670;SDS011;29267;50.906;7.248;2023-04-24T01:43:05;0.65;;;0.50;;
43670;SDS011;29267;50.906;7.248;2023-04-24T01:45:31;0.63;;;0.55;;
43670;SDS011;29267;50.906;7.248;2023-04-24T01:47:57;1.38;;;1.02;;
43670;SDS011;29267;50.906;7.248;2023-04-24T01:50:23;1.58;;;1.10;;
43670;SDS011;29267;50.906;7.248;2023-04-24T01:52:49;5.82;;;1.10;;
43670;SDS011;29267;50.906;7.248;2023-04-24T01:55:14;1.80;;;1.10;;
43670;SDS011;29267;50.906;7.248;2023-04-24T01:57:40;2.15;;;0.98;;
43670;SDS011;29267;50.906;7.248;2023-04-24T02:00:06;1.77;;;1.17;;
43670;SDS011;29267;50.906;7.248;2023-04-24T02:02:32;0.70;;;0.70;;
43670;SDS011;29267;50.906;7.248;2023-04-24T02:04:58;4.93;;;2.15;;
43670;SDS011;29267;50.906;7.248;2023-04-24T02:07:24;1.58;;;1.15;;
43670;SDS011;29267;50.906;7.248;2023-04-24T02:09:50;1.70;;;1.00;;
43670;SDS011;29267;50.906;7.248;2023-04-24T02:12:15;1.17;;;1.05;;
43670;SDS011;29267;50.906;7.248;2023-04-24T02:14:42;1.75;;;1.15;;
43670;SDS011;29267;50.906;7.248;2023-04-24T02:17:08;2.20;;;1.40;;
43670;SDS011;29267;50.906;7.248;2023-04-24T02:19:34;1.73;;;1.00;;
43670;SDS011;29267;50.906;7.248;2023-04-24T02:22:00;4.88;;;1.80;;
43670;SDS011;29267;50.906;7.248;2023-04-24T02:24:25;3.47;;;1.83;;
43670;SDS011;29267;50.906;7.248;2023-04-24T02:26:51;2.08;;;1.60;;
43670;SDS011;29267;50.906;7.248;2023-04-24T02:29:16;2.70;;;1.52;;
43670;SDS011;29267;50.906;7.248;2023-04-24T02:31:42;4.22;;;1.70;;
43670;SDS011;29267;50.906;7.248;2023-04-24T02:34:08;2.22;;;1.30;;
43670;SDS011;29267;50.906;7.248;2023-04-24T02:36:34;4.38;;;1.80;;
43670;SDS011;29267;50.906;7.248;2023-04-24T02:39:00;3.05;;;1.88;;
43670;SDS011;29267;50.906;7.248;2023-04-24T02:41:26;3.95;;;1.98;;
43670;SDS011;29267;50.906;7.248;2023-04-24T02:43:56;2.58;;;2.05;;
43670;SDS011;29267;50.906;7.248;2023-04-24T02:46:22;3.78;;;1.92;;
43670;SDS011;29267;50.906;7.248;2023-04-24T02:48:48;4.57;;;2.17;;
43670;SDS011;29267;50.906;7.248;2023-04-24T02:51:13;6.22;;;2.30;;
43670;SDS011;29267;50.906;7.248;2023-04-24T02:53:39;5.00;;;1.95;;
43670;SDS011;29267;50.906;7.248;2023-04-24T02:56:05;5.03;;;2.40;;
43670;SDS011;29267;50.906;7.248;2023-04-24T02:58:30;5.50;;;2.47;;
43670;SDS011;29267;50.906;7.248;2023-04-24T03:00:56;6.47;;;2.97;;
43670;SDS011;29267;50.906;7.248;2023-04-24T03:03:21;3.63;;;2.83;;
43670;SDS011;29267;50.906;7.248;2023-04-24T03:05:47;4.35;;;2.60;;
43670;SDS011;29267;50.906;7.248;2023-04-24T03:08:13;4.88;;;3.15;;
43670;SDS011;29267;50.906;7.248;2023-04-24T03:10:39;5.03;;;2.50;;
43670;SDS011;29267;50.906;7.248;2023-04-24T03:13:05;5.10;;;2.90;;
43670;SDS011;29267;50.906;7.248;2023-04-24T03:15:30;7.65;;;3.28;;
43670;SDS011;29267;50.906;7.248;2023-04-24T03:17:56;8.20;;;2.97;;
43670;SDS011;29267;50.906;7.248;2023-04-24T03:20:22;5.10;;;2.95;;
43670;SDS011;29267;50.906;7.248;2023-04-24T03:22:47;5.63;;;3.08;;
43670;SDS011;29267;50.906;7.248;2023-04-24T03:25:13;8.30;;;2.83;;
43670;SDS011;29267;50.906;7.248;2023-04-24T03:27:39;4.85;;;3.30;;
43670;SDS011;29267;50.906;7.248;2023-04-24T03:30:05;4.70;;;2.80;;
43670;SDS011;29267;50.906;7.248;2023-04-24T03:32:31;4.93;;;3.17;;
43670;SDS011;29267;50.906;7.248;2023-04-24T03:34:57;5.43;;;3.83;;
43670;SDS011;29267;50.906;7.248;2023-04-24T03:37:23;6.15;;;3.20;;
43670;SDS011;29267;50.906;7.248;2023-04-24T03:39:49;5.60;;;3.22;;
43670;SDS011;29267;50.906;7.248;2023-04-24T03:42:14;7.22;;;3.20;;
43670;SDS011;29267;50.906;7.248;2023-04-24T03:44:40;8.00;;;3.50;;
43670;SDS011;29267;50.906;7.248;2023-04-24T03:47:05;6.82;;;3.40;;
43670;SDS011;29267;50.906;7.248;2023-04-24T03:49:31;7.22;;;3.22;;
43670;SDS011;29267;50.906;7.248;2023-04-24T03:51:56;6.78;;;3.60;;
43670;SDS011;29267;50.906;7.248;2023-04-24T03:54:22;5.82;;;3.40;;
43670;SDS011;29267;50.906;7.248;2023-04-24T03:56:48;4.68;;;3.03;;
43670;SDS011;29267;50.906;7.248;2023-04-24T03:59:13;12.10;;;4.50;;
43670;SDS011;29267;50.906;7.248;2023-04-24T04:01:39;4.78;;;3.15;;
43670;SDS011;29267;50.906;7.248;2023-04-24T04:04:04;5.43;;;2.80;;
43670;SDS011;29267;50.906;7.248;2023-04-24T04:06:30;6.25;;;3.30;;
43670;SDS011;29267;50.906;7.248;2023-04-24T04:08:56;12.20;;;3.15;;
43670;SDS011;29267;50.906;7.248;2023-04-24T04:11:23;4.53;;;2.97;;
43670;SDS011;29267;50.906;7.248;2023-04-24T04:13:48;4.97;;;3.22;;
43670;SDS011;29267;50.906;7.248;2023-04-24T04:16:14;5.50;;;3.42;;
43670;SDS011;29267;50.906;7.248;2023-04-24T04:18:41;6.70;;;3.20;;
43670;SDS011;29267;50.906;7.248;2023-04-24T04:21:07;5.95;;;3.70;;
43670;SDS011;29267;50.906;7.248;2023-04-24T04:23:33;5.10;;;3.45;;
43670;SDS011;29267;50.906;7.248;2023-04-24T04:25:58;6.05;;;3.45;;
43670;SDS011;29267;50.906;7.248;2023-04-24T04:28:24;5.38;;;3.25;;
43670;SDS011;29267;50.906;7.248;2023-04-24T04:30:51;7.47;;;3.67;;
43670;SDS011;29267;50.906;7.248;2023-04-24T04:33:19;7.50;;;3.67;;
43670;SDS011;29267;50.906;7.248;2023-04-24T04:35:45;6.20;;;3.72;;
43670;SDS011;29267;50.906;7.248;2023-04-24T04:38:13;9.07;;;3.42;;
43670;SDS011;29267;50.906;7.248;2023-04-24T04:40:40;5.15;;;3.63;;
43670;SDS011;29267;50.906;7.248;2023-04-24T04:43:05;7.13;;;4.00;;
43670;SDS011;29267;50.906;7.248;2023-04-24T04:45:31;7.80;;;4.13;;
43670;SDS011;29267;50.906;7.248;2023-04-24T04:47:59;6.35;;;3.60;;
43670;SDS011;29267;50.906;7.248;2023-04-24T04:50:28;7.50;;;3.55;;
43670;SDS011;29267;50.906;7.248;2023-04-24T04:52:54;6.05;;;3.53;;
43670;SDS011;29267;50.906;7.248;2023-04-24T04:55:19;7.68;;;3.40;;
43670;SDS011;29267;50.906;7.248;2023-04-24T04:57:45;7.45;;;3.58;;
43670;SDS011;29267;50.906;7.248;2023-04-24T05:00:11;4.53;;;3.15;;
43670;SDS011;29267;50.906;7.248;2023-04-24T05:02:37;7.38;;;3.78;;
43670;SDS011;29267;50.906;7.248;2023-04-24T05:05:04;5.60;;;3.70;;
43670;SDS011;29267;50.906;7.248;2023-04-24T05:07:30;9.23;;;3.50;;
43670;SDS011;29267;50.906;7.248;2023-04-24T05:09:56;5.43;;;3.30;;
43670;SDS011;29267;50.906;7.248;2023-04-24T05:12:22;5.47;;;3.63;;
43670;SDS011;29267;50.906;7.248;2023-04-24T05:14:47;5.13;;;3.17;;
43670;SDS011;29267;50.906;7.248;2023-04-24T05:17:13;8.18;;;3.38;;
43670;SDS011;29267;50.906;7.248;2023-04-24T05:19:38;3.92;;;2.85;;
43670;SDS011;29267;50.906;7.248;2023-04-24T05:22:04;4.32;;;3.30;;
43670;SDS011;29267;50.906;7.248;2023-04-24T05:24:32;5.70;;;3.40;;
43670;SDS011;29267;50.906;7.248;2023-04-24T05:26:58;5.20;;;3.08;;
43670;SDS011;29267;50.906;7.248;2023-04-24T05:29:24;6.78;;;3.17;;
43670;SDS011;29267;50.906;7.248;2023-04-24T05:31:51;4.32;;;2.97;;
43670;SDS011;29267;50.906;7.248;2023-04-24T05:34:17;6.38;;;3.72;;
43670;SDS011;29267;50.906;7.248;2023-04-24T05:36:43;6.03;;;2.83;;
43670;SDS011;29267;50.906;7.248;2023-04-24T05:39:08;5.68;;;3.60;;
43670;SDS011;29267;50.906;7.248;2023-04-24T05:41:34;5.28;;;3.28;;
43670;SDS011;29267;50.906;7.248;2023-04-24T05:44:00;6.72;;;3.40;;
43670;SDS011;29267;50.906;7.248;2023-04-24T05:46:26;7.63;;;3.15;;
43670;SDS011;29267;50.906;7.248;2023-04-24T05:48:51;5.88;;;2.75;;
43670;SDS011;29267;50.906;7.248;2023-04-24T05:51:17;8.60;;;3.55;;
43670;SDS011;29267;50.906;7.248;2023-04-24T05:53:42;5.10;;;2.83;;
43670;SDS011;29267;50.906;7.248;2023-04-24T05:56:08;8.75;;;3.20;;
43670;SDS011;29267;50.906;7.248;2023-04-24T05:58:34;5.00;;;3.15;;
43670;SDS011;29267;50.906;7.248;2023-04-24T06:00:59;4.35;;;2.85;;
43670;SDS011;29267;50.906;7.248;2023-04-24T06:03:26;4.20;;;2.40;;
43670;SDS011;29267;50.906;7.248;2023-04-24T06:05:52;6.05;;;2.78;;
43670;SDS011;29267;50.906;7.248;2023-04-24T06:08:18;9.05;;;2.83;;
43670;SDS011;29267;50.906;7.248;2023-04-24T06:10:44;4.57;;;2.92;;
43670;SDS011;29267;50.906;7.248;2023-04-24T06:13:10;5.38;;;2.55;;
43670;SDS011;29267;50.906;7.248;2023-04-24T06:15:36;5.03;;;3.63;;
43670;SDS011;29267;50.906;7.248;2023-04-24T06:18:02;8.25;;;3.25;;
43670;SDS011;29267;50.906;7.248;2023-04-24T06:20:28;4.90;;;2.90;;
43670;SDS011;29267;50.906;7.248;2023-04-24T06:22:54;8.05;;;3.67;;
43670;SDS011;29267;50.906;7.248;2023-04-24T06:25:19;7.13;;;3.40;;
43670;SDS011;29267;50.906;7.248;2023-04-24T06:27:45;6.47;;;3.60;;
43670;SDS011;29267;50.906;7.248;2023-04-24T06:30:11;6.25;;;3.13;;
43670;SDS011;29267;50.906;7.248;2023-04-24T06:32:37;6.25;;;3.55;;
43670;SDS011;29267;50.906;7.248;2023-04-24T06:35:03;8.15;;;4.05;;
43670;SDS011;29267;50.906;7.248;2023-04-24T06:37:29;6.80;;;4.30;;
43670;SDS011;29267;50.906;7.248;2023-04-24T06:39:55;4.88;;;3.13;;
43670;SDS011;29267;50.906;7.248;2023-04-24T06:42:20;6.00;;;3.90;;
43670;SDS011;29267;50.906;7.248;2023-04-24T06:44:47;30.45;;;13.80;;
43670;SDS011;29267;50.906;7.248;2023-04-24T06:47:12;15.48;;;9.55;;
43670;SDS011;29267;50.906;7.248;2023-04-24T06:49:41;35.03;;;19.35;;
43670;SDS011;29267;50.906;7.248;2023-04-24T06:52:07;12.57;;;7.90;;
43670;SDS011;29267;50.906;7.248;2023-04-24T06:54:33;9.98;;;4.85;;
43670;SDS011;29267;50.906;7.248;2023-04-24T06:56:59;13.60;;;7.60;;
43670;SDS011;29267;50.906;7.248;2023-04-24T06:59:26;11.95;;;8.13;;
43670;SDS011;29267;50.906;7.248;2023-04-24T07:01:52;7.45;;;5.50;;
43670;SDS011;29267;50.906;7.248;2023-04-24T07:04:18;10.27;;;5.15;;
43670;SDS011;29267;50.906;7.248;2023-04-24T07:06:44;8.68;;;5.25;;
43670;SDS011;29267;50.906;7.248;2023-04-24T07:09:11;6.63;;;4.38;;
43670;SDS011;29267;50.906;7.248;2023-04-24T07:11:38;9.07;;;4.25;;
43670;SDS011;29267;50.906;7.248;2023-04-24T07:14:05;11.25;;;5.28;;
43670;SDS011;29267;50.906;7.248;2023-04-24T07:16:31;7.13;;;4.45;;
43670;SDS011;29267;50.906;7.248;2023-04-24T07:18:57;5.30;;;3.95;;
43670;SDS011;29267;50.906;7.248;2023-04-24T07:21:22;7.03;;;4.32;;
43670;SDS011;29267;50.906;7.248;2023-04-24T07:23:48;5.20;;;3.58;;
43670;SDS011;29267;50.906;7.248;2023-04-24T07:26:14;6.38;;;3.50;;
43670;SDS011;29267;50.906;7.248;2023-04-24T07:28:40;7.72;;;3.80;;
43670;SDS011;29267;50.906;7.248;2023-04-24T07:31:06;7.32;;;4.25;;
43670;SDS011;29267;50.906;7.248;2023-04-24T07:33:32;5.63;;;3.67;;
43670;SDS011;29267;50.906;7.248;2023-04-24T07:35:58;5.72;;;3.72;;
43670;SDS011;29267;50.906;7.248;2023-04-24T07:38:24;6.78;;;2.40;;
43670;SDS011;29267;50.906;7.248;2023-04-24T07:40:51;3.67;;;2.65;;
43670;SDS011;29267;50.906;7.248;2023-04-24T07:43:16;9.75;;;4.25;;
43670;SDS011;29267;50.906;7.248;2023-04-24T07:45:42;4.47;;;2.25;;
43670;SDS011;29267;50.906;7.248;2023-04-24T07:48:08;3.88;;;2.28;;
43670;SDS011;29267;50.906;7.248;2023-04-24T07:50:34;3.30;;;2.47;;
43670;SDS011;29267;50.906;7.248;2023-04-24T07:53:01;2.92;;;1.65;;
43670;SDS011;29267;50.906;7.248;2023-04-24T07:55:26;3.58;;;1.38;;
43670;SDS011;29267;50.906;7.248;2023-04-24T07:57:52;2.83;;;1.80;;
43670;SDS011;29267;50.906;7.248;2023-04-24T08:00:18;2.67;;;1.70;;
43670;SDS011;29267;50.906;7.248;2023-04-24T08:02:43;1.85;;;1.20;;
43670;SDS011;29267;50.906;7.248;2023-04-24T08:05:09;1.40;;;1.00;;
43670;SDS011;29267;50.906;7.248;2023-04-24T08:07:35;3.75;;;1.00;;
43670;SDS011;29267;50.906;7.248;2023-04-24T08:10:01;1.17;;;0.70;;
43670;SDS011;29267;50.906;7.248;2023-04-24T08:12:30;7.43;;;1.77;;
43670;SDS011;29267;50.906;7.248;2023-04-24T08:14:55;2.55;;;1.27;;
43670;SDS011;29267;50.906;7.248;2023-04-24T08:17:21;2.00;;;0.93;;
43670;SDS011;29267;50.906;7.248;2023-04-24T08:19:47;1.58;;;0.75;;
43670;SDS011;29267;50.906;7.248;2023-04-24T08:22:15;1.17;;;0.70;;
43670;SDS011;29267;50.906;7.248;2023-04-24T08:24:41;1.67;;;1.10;;
43670;SDS011;29267;50.906;7.248;2023-04-24T08:27:08;1.67;;;0.82;;
43670;SDS011;29267;50.906;7.248;2023-04-24T08:29:33;1.33;;;0.85;;
43670;SDS011;29267;50.906;7.248;2023-04-24T08:31:59;4.65;;;0.90;;
43670;SDS011;29267;50.906;7.248;2023-04-24T08:34:25;1.13;;;0.93;;
43670;SDS011;29267;50.906;7.248;2023-04-24T08:36:50;3.78;;;1.70;;
43670;SDS011;29267;50.906;7.248;2023-04-24T08:39:16;5.78;;;1.05;;
43670;SDS011;29267;50.906;7.248;2023-04-24T08:41:43;2.33;;;1.00;;
43670;SDS011;29267;50.906;7.248;2023-04-24T08:44:10;1.55;;;1.05;;
43670;SDS011;29267;50.906;7.248;2023-04-24T08:46:37;1.38;;;1.00;;
43670;SDS011;29267;50.906;7.248;2023-04-24T08:49:04;2.50;;;1.23;;
43670;SDS011;29267;50.906;7.248;2023-04-24T08:51:30;0.73;;;0.50;;
43670;SDS011;29267;50.906;7.248;2023-04-24T08:53:56;7.00;;;0.60;;
43670;SDS011;29267;50.906;7.248;2023-04-24T08:56:22;0.50;;;0.50;;
43670;SDS011;29267;50.906;7.248;2023-04-24T08:58:53;1.40;;;0.82;;
43670;SDS011;29267;50.906;7.248;2023-04-24T09:01:19;2.92;;;1.40;;
43670;SDS011;29267;50.906;7.248;2023-04-24T09:03:46;9.77;;;4.95;;
43670;SDS011;29267;50.906;7.248;2023-04-24T09:06:13;1.08;;;0.80;;
43670;SDS011;29267;50.906;7.248;2023-04-24T09:08:41;0.98;;;0.70;;
43670;SDS011;29267;50.906;7.248;2023-04-24T09:11:08;3.53;;;1.67;;
43670;SDS011;29267;50.906;7.248;2023-04-24T09:13:36;12.23;;;4.90;;
43670;SDS011;29267;50.906;7.248;2023-04-24T09:16:02;17.92;;;7.75;;
43670;SDS011;29267;50.906;7.248;2023-04-24T09:18:28;3.22;;;1.83;;
43670;SDS011;29267;50.906;7.248;2023-04-24T09:21:00;1.92;;;1.05;;
43670;SDS011;29267;50.906;7.248;2023-04-24T09:25:55;2.70;;;1.75;;
43670;SDS011;29267;50.906;7.248;2023-04-24T09:28:25;2.90;;;1.33;;
43670;SDS011;29267;50.906;7.248;2023-04-24T09:33:32;2.45;;;2.05;;
43670;SDS011;29267;50.906;7.248;2023-04-24T09:35:58;3.65;;;2.20;;
43670;SDS011;29267;50.906;7.248;2023-04-24T09:38:36;7.05;;;2.47;;
43670;SDS011;29267;50.906;7.248;2023-04-24T09:41:03;4.30;;;2.45;;
43670;SDS011;29267;50.906;7.248;2023-04-24T09:43:31;5.55;;;2.58;;
43670;SDS011;29267;50.906;7.248;2023-04-24T09:45:57;3.42;;;2.35;;
43670;SDS011;29267;50.906;7.248;2023-04-24T09:48:33;4.43;;;2.72;;
43670;SDS011;29267;50.906;7.248;2023-04-24T09:51:04;5.78;;;2.97;;
43670;SDS011;29267;50.906;7.248;2023-04-24T09:53:36;5.85;;;3.05;;
43670;SDS011;29267;50.906;7.248;2023-04-24T09:56:02;5.45;;;3.05;;
43670;SDS011;29267;50.906;7.248;2023-04-24T09:58:31;8.57;;;3.05;;
43670;SDS011;29267;50.906;7.248;2023-04-24T10:00:57;6.13;;;3.45;;
43670;SDS011;29267;50.906;7.248;2023-04-24T10:03:26;5.68;;;2.97;;
43670;SDS011;29267;50.906;7.248;2023-04-24T10:05:58;7.70;;;4.03;;
43670;SDS011;29267;50.906;7.248;2023-04-24T10:08:24;11.52;;;4.57;;
43670;SDS011;29267;50.906;7.248;2023-04-24T10:10:51;5.30;;;3.20;;
43670;SDS011;29267;50.906;7.248;2023-04-24T10:13:17;11.60;;;5.07;;
43670;SDS011;29267;50.906;7.248;2023-04-24T10:15:43;17.48;;;7.95;;
43670;SDS011;29267;50.906;7.248;2023-04-24T10:18:10;19.35;;;9.77;;
43670;SDS011;29267;50.906;7.248;2023-04-24T10:20:37;15.10;;;7.30;;
43670;SDS011;29267;50.906;7.248;2023-04-24T10:23:04;15.02;;;7.38;;
43670;SDS011;29267;50.906;7.248;2023-04-24T10:25:31;13.98;;;8.32;;
43670;SDS011;29267;50.906;7.248;2023-04-24T10:27:58;13.60;;;5.30;;
43670;SDS011;29267;50.906;7.248;2023-04-24T10:30:26;8.95;;;4.70;;
43670;SDS011;29267;50.906;7.248;2023-04-24T10:32:53;7.70;;;3.75;;
43670;SDS011;29267;50.906;7.248;2023-04-24T10:35:19;9.23;;;3.65;;
43670;SDS011;29267;50.906;7.248;2023-04-24T10:37:51;8.73;;;4.10;;
43670;SDS011;29267;50.906;7.248;2023-04-24T10:40:49;21.98;;;9.07;;
43670;SDS011;29267;50.906;7.248;2023-04-24T10:43:16;65.68;;;30.42;;
43670;SDS011;29267;50.906;7.248;2023-04-24T10:45:59;93.55;;;39.05;;
43670;SDS011;29267;50.906;7.248;2023-04-24T10:48:29;10.77;;;6.72;;
43670;SDS011;29267;50.906;7.248;2023-04-24T10:50:57;14.60;;;8.18;;
43670;SDS011;29267;50.906;7.248;2023-04-24T10:53:24;8.38;;;4.00;;
43670;SDS011;29267;50.906;7.248;2023-04-24T10:56:02;8.88;;;3.60;;
43670;SDS011;29267;50.906;7.248;2023-04-24T10:58:50;52.80;;;22.67;;
43670;SDS011;29267;50.906;7.248;2023-04-24T11:01:28;45.60;;;26.65;;
43670;SDS011;29267;50.906;7.248;2023-04-24T11:03:59;9.45;;;5.32;;
43670;SDS011;29267;50.906;7.248;2023-04-24T11:06:31;6.88;;;3.83;;
43670;SDS011;29267;50.906;7.248;2023-04-24T11:09:04;10.20;;;3.15;;
43670;SDS011;29267;50.906;7.248;2023-04-24T11:11:34;7.55;;;3.55;;
43670;SDS011;29267;50.906;7.248;2023-04-24T11:14:03;9.50;;;6.05;;
43670;SDS011;29267;50.906;7.248;2023-04-24T11:19:23;32.47;;;14.50;;
43670;SDS011;29267;50.906;7.248;2023-04-24T11:24:30;6.65;;;3.10;;
43670;SDS011;29267;50.906;7.248;2023-04-24T11:29:42;14.95;;;2.97;;
43670;SDS011;29267;50.906;7.248;2023-04-24T11:32:17;12.15;;;3.40;;
43670;SDS011;29267;50.906;7.248;2023-04-24T11:34:47;8.55;;;3.60;;
43670;SDS011;29267;50.906;7.248;2023-04-24T11:37:21;8.63;;;4.35;;
43670;SDS011;29267;50.906;7.248;2023-04-24T11:40:08;10.27;;;3.30;;
43670;SDS011;29267;50.906;7.248;2023-04-24T11:42:36;9.18;;;2.92;;
43670;SDS011;29267;50.906;7.248;2023-04-24T11:47:42;5.85;;;2.40;;
43670;SDS011;29267;50.906;7.248;2023-04-24T11:50:12;11.05;;;2.55;;
43670;SDS011;29267;50.906;7.248;2023-04-24T11:52:45;6.88;;;2.78;;
43670;SDS011;29267;50.906;7.248;2023-04-24T11:57:45;9.15;;;2.85;;
43670;SDS011;29267;50.906;7.248;2023-04-24T12:00:15;7.35;;;2.47;;
43670;SDS011;29267;50.906;7.248;2023-04-24T12:02:42;9.18;;;3.08;;
43670;SDS011;29267;50.906;7.248;2023-04-24T12:05:08;9.80;;;2.88;;
43670;SDS011;29267;50.906;7.248;2023-04-24T12:07:40;8.18;;;3.22;;
43670;SDS011;29267;50.906;7.248;2023-04-24T12:10:09;3.00;;;2.10;;
43670;SDS011;29267;50.906;7.248;2023-04-24T12:12:35;14.07;;;3.85;;
43670;SDS011;29267;50.906;7.248;2023-04-24T12:15:01;6.13;;;3.10;;
43670;SDS011;29267;50.906;7.248;2023-04-24T12:17:31;9.90;;;3.35;;
43670;SDS011;29267;50.906;7.248;2023-04-24T12:19:58;8.45;;;2.90;;
43670;SDS011;29267;50.906;7.248;2023-04-24T12:25:15;7.57;;;3.67;;
43670;SDS011;29267;50.906;7.248;2023-04-24T12:27:43;8.43;;;4.70;;
43670;SDS011;29267;50.906;7.248;2023-04-24T12:30:10;14.65;;;7.55;;
43670;SDS011;29267;50.906;7.248;2023-04-24T12:32:42;9.88;;;3.05;;
43670;SDS011;29267;50.906;7.248;2023-04-24T12:35:08;6.60;;;3.03;;
43670;SDS011;29267;50.906;7.248;2023-04-24T12:37:34;8.05;;;3.50;;
43670;SDS011;29267;50.906;7.248;2023-04-24T12:40:02;7.00;;;3.58;;
43670;SDS011;29267;50.906;7.248;2023-04-24T12:42:29;6.05;;;3.10;;
43670;SDS011;29267;50.906;7.248;2023-04-24T12:44:59;10.93;;;3.40;;
43670;SDS011;29267;50.906;7.248;2023-04-24T12:47:29;9.43;;;3.78;;
43670;SDS011;29267;50.906;7.248;2023-04-24T12:49:56;8.27;;;3.15;;
43670;SDS011;29267;50.906;7.248;2023-04-24T12:52:22;7.97;;;3.80;;
43670;SDS011;29267;50.906;7.248;2023-04-24T12:54:49;7.90;;;3.47;;
43670;SDS011;29267;50.906;7.248;2023-04-24T12:57:16;9.50;;;3.38;;
43670;SDS011;29267;50.906;7.248;2023-04-24T12:59:42;7.13;;;3.40;;
43670;SDS011;29267;50.906;7.248;2023-04-24T13:02:08;11.98;;;4.28;;
43670;SDS011;29267;50.906;7.248;2023-04-24T13:04:35;24.15;;;7.78;;
43670;SDS011;29267;50.906;7.248;2023-04-24T13:07:00;10.60;;;4.40;;
43670;SDS011;29267;50.906;7.248;2023-04-24T13:09:26;10.10;;;4.85;;
43670;SDS011;29267;50.906;7.248;2023-04-24T13:11:52;12.10;;;4.18;;
43670;SDS011;29267;50.906;7.248;2023-04-24T13:14:17;14.50;;;5.13;;
43670;SDS011;29267;50.906;7.248;2023-04-24T13:16:43;8.82;;;4.15;;
43670;SDS011;29267;50.906;7.248;2023-04-24T13:19:09;10.68;;;3.92;;
43670;SDS011;29267;50.906;7.248;2023-04-24T13:21:34;7.32;;;3.65;;
43670;SDS011;29267;50.906;7.248;2023-04-24T13:24:00;16.88;;;5.35;;
43670;SDS011;29267;50.906;7.248;2023-04-24T13:26:26;10.95;;;4.30;;
43670;SDS011;29267;50.906;7.248;2023-04-24T13:28:51;14.55;;;4.35;;
43670;SDS011;29267;50.906;7.248;2023-04-24T13:31:17;15.27;;;3.55;;
43670;SDS011;29267;50.906;7.248;2023-04-24T13:33:42;9.70;;;3.97;;
43670;SDS011;29267;50.906;7.248;2023-04-24T13:36:08;10.65;;;4.88;;
43670;SDS011;29267;50.906;7.248;2023-04-24T13:38:33;9.02;;;4.18;;
43670;SDS011;29267;50.906;7.248;2023-04-24T13:40:59;10.45;;;3.55;;
43670;SDS011;29267;50.906;7.248;2023-04-24T13:43:25;11.70;;;4.15;;
43670;SDS011;29267;50.906;7.248;2023-04-24T13:45:51;9.35;;;4.07;;
43670;SDS011;29267;50.906;7.248;2023-04-24T13:48:17;24.42;;;4.60;;
43670;SDS011;29267;50.906;7.248;2023-04-24T13:50:43;10.43;;;4.00;;
43670;SDS011;29267;50.906;7.248;2023-04-24T13:53:09;12.45;;;5.53;;
43670;SDS011;29267;50.906;7.248;2023-04-24T13:55:35;8.80;;;3.58;;
43670;SDS011;29267;50.906;7.248;2023-04-24T13:58:01;11.98;;;4.20;;
43670;SDS011;29267;50.906;7.248;2023-04-24T14:00:28;15.70;;;4.40;;
43670;SDS011;29267;50.906;7.248;2023-04-24T14:02:53;17.52;;;5.68;;
43670;SDS011;29267;50.906;7.248;2023-04-24T14:05:19;9.20;;;4.03;;
43670;SDS011;29267;50.906;7.248;2023-04-24T14:07:46;13.35;;;4.55;;
43670;SDS011;29267;50.906;7.248;2023-04-24T14:10:12;19.63;;;5.40;;
43670;SDS011;29267;50.906;7.248;2023-04-24T14:12:37;7.95;;;4.10;;
43670;SDS011;29267;50.906;7.248;2023-04-24T14:15:03;7.85;;;3.97;;
43670;SDS011;29267;50.906;7.248;2023-04-24T14:17:30;13.63;;;4.72;;
43670;SDS011;29267;50.906;7.248;2023-04-24T14:19:56;12.57;;;3.78;;
43670;SDS011;29267;50.906;7.248;2023-04-24T14:22:21;9.70;;;4.35;;
43670;SDS011;29267;50.906;7.248;2023-04-24T14:24:47;10.68;;;4.75;;
43670;SDS011;29267;50.906;7.248;2023-04-24T14:27:13;12.65;;;3.65;;
43670;SDS011;29267;50.906;7.248;2023-04-24T14:29:38;9.75;;;3.58;;
43670;SDS011;29267;50.906;7.248;2023-04-24T14:32:04;9.07;;;4.05;;
43670;SDS011;29267;50.906;7.248;2023-04-24T14:34:30;8.57;;;3.58;;
43670;SDS011;29267;50.906;7.248;2023-04-24T14:36:55;7.65;;;2.90;;
43670;SDS011;29267;50.906;7.248;2023-04-24T14:39:21;9.25;;;3.55;;
43670;SDS011;29267;50.906;7.248;2023-04-24T14:41:47;8.02;;;3.85;;
43670;SDS011;29267;50.906;7.248;2023-04-24T14:44:12;7.65;;;2.80;;
43670;SDS011;29267;50.906;7.248;2023-04-24T14:46:38;10.35;;;4.82;;
43670;SDS011;29267;50.906;7.248;2023-04-24T14:49:04;8.57;;;3.55;;
43670;SDS011;29267;50.906;7.248;2023-04-24T14:51:29;9.05;;;3.88;;
43670;SDS011;29267;50.906;7.248;2023-04-24T14:53:55;6.40;;;3.13;;
43670;SDS011;29267;50.906;7.248;2023-04-24T14:56:21;8.82;;;4.18;;
43670;SDS011;29267;50.906;7.248;2023-04-24T14:58:48;8.25;;;4.15;;
43670;SDS011;29267;50.906;7.248;2023-04-24T15:01:13;9.80;;;3.38;;
43670;SDS011;29267;50.906;7.248;2023-04-24T15:03:39;8.25;;;3.47;;